sensor_id;sensor_type;location;lat;lon;timestamp;P1;durP1;ratioP1;P2;durP2;ratioP2
19525;SDS011;9907;42.676;26.348;2023-02-28T00:00:00;13.40;;;12.00;;
19525;SDS011;9907;42.676;26.348;2023-02-28T00:02:25;16.53;;;12.40;;
19525;SDS011;9907;42.676;26.348;2023-02-28T00:04:51;15.80;;;11.87;;
19525;SDS011;9907;42.676;26.348;2023-02-28T00:07:26;17.13;;;12.80;;
19525;SDS011;9907;42.676;26.348;2023-02-28T00:09:53;15.80;;;11.93;;
19525;SDS011;9907;42.676;26.348;2023-02-28T00:12:18;14.03;;;11.10;;
19525;SDS011;9907;42.676;26.348;2023-02-28T00:14:44;14.83;;;11.83;;
19525;SDS011;9907;42.676;26.348;2023-02-28T00:17:09;15.80;;;11.73;;
19525;SDS011;9907;42.676;26.348;2023-02-28T00:19:35;13.40;;;10.97;;
19525;SDS011;9907;42.676;26.348;2023-02-28T00:22:00;13.03;;;10.77;;
19525;SDS011;9907;42.676;26.348;2023-02-28T00:24:25;12.57;;;10.80;;
19525;SDS011;9907;42.676;26.348;2023-02-28T00:26:51;11.57;;;10.37;;
19525;SDS011;9907;42.676;26.348;2023-02-28T00:29:22;14.10;;;10.30;;
19525;SDS011;9907;42.676;26.348;2023-02-28T00:31:48;13.13;;;9.67;;
19525;SDS011;9907;42.676;26.348;2023-02-28T00:34:13;13.13;;;9.53;;
19525;SDS011;9907;42.676;26.348;2023-02-28T00:36:39;10.33;;;9.27;;
19525;SDS011;9907;42.676;26.348;2023-02-28T00:39:09;10.43;;;8.77;;
19525;SDS011;9907;42.676;26.348;2023-02-28T00:41:34;10.57;;;8.47;;
19525;SDS011;9907;42.676;26.348;2023-02-28T00:43:59;9.67;;;8.10;;
19525;SDS011;9907;42.676;26.348;2023-02-28T00:46:25;10.10;;;8.43;;
19525;SDS011;9907;42.676;26.348;2023-02-28T00:48:50;10.27;;;8.50;;
19525;SDS011;9907;42.676;26.348;2023-02-28T00:51:16;11.33;;;8.50;;
19525;SDS011;9907;42.676;26.348;2023-02-28T00:53:41;10.67;;;8.30;;
19525;SDS011;9907;42.676;26.348;2023-02-28T00:56:07;10.27;;;9.13;;
19525;SDS011;9907;42.676;26.348;2023-02-28T00:58:32;11.30;;;9.17;;
19525;SDS011;9907;42.676;26.348;2023-02-28T01:00:58;13.33;;;8.90;;
19525;SDS011;9907;42.676;26.348;2023-02-28T01:03:23;11.33;;;7.80;;
19525;SDS011;9907;42.676;26.348;2023-02-28T01:05:49;10.93;;;8.53;;
19525;SDS011;9907;42.676;26.348;2023-02-28T01:08:14;9.60;;;8.30;;
19525;SDS011;9907;42.676;26.348;2023-02-28T01:10:40;11.47;;;8.20;;
19525;SDS011;9907;42.676;26.348;2023-02-28T01:13:06;9.60;;;7.73;;
19525;SDS011;9907;42.676;26.348;2023-02-28T01:15:31;10.93;;;8.17;;
19525;SDS011;9907;42.676;26.348;2023-02-28T01:17:57;9.57;;;8.03;;
19525;SDS011;9907;42.676;26.348;2023-02-28T01:20:23;9.40;;;7.77;;
19525;SDS011;9907;42.676;26.348;2023-02-28T01:22:49;8.83;;;7.90;;
19525;SDS011;9907;42.676;26.348;2023-02-28T01:25:15;9.70;;;8.57;;
19525;SDS011;9907;42.676;26.348;2023-02-28T01:27:40;7.40;;;6.63;;
19525;SDS011;9907;42.676;26.348;2023-02-28T01:30:09;8.40;;;7.37;;
19525;SDS011;9907;42.676;26.348;2023-02-28T01:32:35;9.70;;;8.00;;
19525;SDS011;9907;42.676;26.348;2023-02-28T01:35:01;9.43;;;7.70;;
19525;SDS011;9907;42.676;26.348;2023-02-28T01:37:27;10.50;;;8.07;;
19525;SDS011;9907;42.676;26.348;2023-02-28T01:39:53;9.70;;;7.57;;
19525;SDS011;9907;42.676;26.348;2023-02-28T01:42:18;10.50;;;7.90;;
19525;SDS011;9907;42.676;26.348;2023-02-28T01:47:38;8.77;;;7.87;;
19525;SDS011;9907;42.676;26.348;2023-02-28T01:50:12;8.77;;;7.33;;
19525;SDS011;9907;42.676;26.348;2023-02-28T01:52:41;8.03;;;7.23;;
19525;SDS011;9907;42.676;26.348;2023-02-28T01:55:08;8.10;;;7.27;;
19525;SDS011;9907;42.676;26.348;2023-02-28T01:57:38;8.30;;;6.83;;
19525;SDS011;9907;42.676;26.348;2023-02-28T02:00:08;8.13;;;6.53;;
19525;SDS011;9907;42.676;26.348;2023-02-28T02:02:38;6.80;;;6.10;;
19525;SDS011;9907;42.676;26.348;2023-02-28T02:05:08;7.77;;;6.80;;
19525;SDS011;9907;42.676;26.348;2023-02-28T02:07:38;8.53;;;7.20;;
19525;SDS011;9907;42.676;26.348;2023-02-28T02:18:19;11.63;;;7.97;;
19525;SDS011;9907;42.676;26.348;2023-02-28T02:36:58;10.60;;;7.30;;
19525;SDS011;9907;42.676;26.348;2023-02-28T02:39:38;7.70;;;6.90;;
19525;SDS011;9907;42.676;26.348;2023-02-28T02:42:19;8.23;;;7.30;;
19525;SDS011;9907;42.676;26.348;2023-02-28T02:45:26;8.20;;;6.90;;
19525;SDS011;9907;42.676;26.348;2023-02-28T02:47:52;8.30;;;6.93;;
19525;SDS011;9907;42.676;26.348;2023-02-28T02:50:31;9.47;;;6.80;;
19525;SDS011;9907;42.676;26.348;2023-02-28T02:53:02;7.87;;;7.07;;
19525;SDS011;9907;42.676;26.348;2023-02-28T02:55:31;8.30;;;7.00;;
19525;SDS011;9907;42.676;26.348;2023-02-28T02:58:03;8.77;;;7.63;;
19525;SDS011;9907;42.676;26.348;2023-02-28T03:00:34;9.30;;;7.73;;
19525;SDS011;9907;42.676;26.348;2023-02-28T03:03:05;11.17;;;7.53;;
19525;SDS011;9907;42.676;26.348;2023-02-28T03:05:34;9.13;;;7.33;;
19525;SDS011;9907;42.676;26.348;2023-02-28T03:08:07;8.37;;;7.23;;
19525;SDS011;9907;42.676;26.348;2023-02-28T03:10:34;8.97;;;7.57;;
19525;SDS011;9907;42.676;26.348;2023-02-28T03:16:02;8.73;;;7.40;;
19525;SDS011;9907;42.676;26.348;2023-02-28T03:26:55;9.70;;;6.27;;
19525;SDS011;9907;42.676;26.348;2023-02-28T03:29:33;7.07;;;6.37;;
19525;SDS011;9907;42.676;26.348;2023-02-28T03:34:41;9.23;;;7.70;;
19525;SDS011;9907;42.676;26.348;2023-02-28T03:37:15;9.60;;;8.00;;
19525;SDS011;9907;42.676;26.348;2023-02-28T03:39:48;9.03;;;8.10;;
19525;SDS011;9907;42.676;26.348;2023-02-28T03:42:20;10.83;;;9.63;;
19525;SDS011;9907;42.676;26.348;2023-02-28T03:44:56;12.27;;;9.50;;
19525;SDS011;9907;42.676;26.348;2023-02-28T03:47:31;13.87;;;9.67;;
19525;SDS011;9907;42.676;26.348;2023-02-28T03:52:34;14.23;;;10.43;;
19525;SDS011;9907;42.676;26.348;2023-02-28T03:55:05;12.87;;;10.47;;
19525;SDS011;9907;42.676;26.348;2023-02-28T04:00:12;14.60;;;10.30;;
19525;SDS011;9907;42.676;26.348;2023-02-28T04:02:42;12.47;;;10.07;;
19525;SDS011;9907;42.676;26.348;2023-02-28T04:05:08;14.20;;;10.90;;
19525;SDS011;9907;42.676;26.348;2023-02-28T04:07:34;11.50;;;9.90;;
19525;SDS011;9907;42.676;26.348;2023-02-28T04:10:00;12.63;;;9.50;;
19525;SDS011;9907;42.676;26.348;2023-02-28T04:12:26;10.50;;;9.40;;
19525;SDS011;9907;42.676;26.348;2023-02-28T04:14:51;11.57;;;10.20;;
19525;SDS011;9907;42.676;26.348;2023-02-28T04:17:17;13.43;;;10.80;;
19525;SDS011;9907;42.676;26.348;2023-02-28T04:19:43;13.30;;;11.90;;
19525;SDS011;9907;42.676;26.348;2023-02-28T04:22:09;16.17;;;13.03;;
19525;SDS011;9907;42.676;26.348;2023-02-28T04:24:35;14.23;;;12.77;;
19525;SDS011;9907;42.676;26.348;2023-02-28T04:27:00;15.17;;;12.67;;
19525;SDS011;9907;42.676;26.348;2023-02-28T04:29:32;12.97;;;11.63;;
19525;SDS011;9907;42.676;26.348;2023-02-28T04:31:58;12.67;;;11.33;;
19525;SDS011;9907;42.676;26.348;2023-02-28T04:34:25;13.53;;;11.13;;
19525;SDS011;9907;42.676;26.348;2023-02-28T04:36:52;12.80;;;11.43;;
19525;SDS011;9907;42.676;26.348;2023-02-28T04:39:20;15.27;;;11.43;;
19525;SDS011;9907;42.676;26.348;2023-02-28T04:41:46;12.83;;;10.80;;
19525;SDS011;9907;42.676;26.348;2023-02-28T04:44:12;11.63;;;10.43;;
19525;SDS011;9907;42.676;26.348;2023-02-28T04:46:38;12.80;;;10.73;;
19525;SDS011;9907;42.676;26.348;2023-02-28T04:49:03;11.97;;;10.67;;
19525;SDS011;9907;42.676;26.348;2023-02-28T04:51:29;12.00;;;10.70;;
19525;SDS011;9907;42.676;26.348;2023-02-28T04:53:55;12.07;;;10.33;;
19525;SDS011;9907;42.676;26.348;2023-02-28T04:56:20;13.87;;;11.37;;
19525;SDS011;9907;42.676;26.348;2023-02-28T04:58:46;13.70;;;11.23;;
19525;SDS011;9907;42.676;26.348;2023-02-28T05:01:23;11.80;;;9.73;;
19525;SDS011;9907;42.676;26.348;2023-02-28T05:03:51;12.47;;;10.67;;
19525;SDS011;9907;42.676;26.348;2023-02-28T05:06:19;13.23;;;10.33;;
19525;SDS011;9907;42.676;26.348;2023-02-28T05:08:45;15.07;;;11.33;;
19525;SDS011;9907;42.676;26.348;2023-02-28T05:11:15;11.77;;;10.37;;
19525;SDS011;9907;42.676;26.348;2023-02-28T05:13:43;13.47;;;10.33;;
19525;SDS011;9907;42.676;26.348;2023-02-28T05:16:09;11.87;;;10.20;;
19525;SDS011;9907;42.676;26.348;2023-02-28T05:18:35;12.03;;;10.67;;
19525;SDS011;9907;42.676;26.348;2023-02-28T05:21:01;14.33;;;10.47;;
19525;SDS011;9907;42.676;26.348;2023-02-28T05:23:27;11.40;;;9.87;;
19525;SDS011;9907;42.676;26.348;2023-02-28T05:25:53;10.77;;;9.60;;
19525;SDS011;9907;42.676;26.348;2023-02-28T05:28:19;11.93;;;10.67;;
19525;SDS011;9907;42.676;26.348;2023-02-28T05:30:44;12.10;;;10.23;;
19525;SDS011;9907;42.676;26.348;2023-02-28T05:33:11;10.97;;;9.60;;
19525;SDS011;9907;42.676;26.348;2023-02-28T05:35:38;10.60;;;9.50;;
19525;SDS011;9907;42.676;26.348;2023-02-28T05:38:04;10.27;;;9.27;;
19525;SDS011;9907;42.676;26.348;2023-02-28T05:40:30;9.63;;;8.43;;
19525;SDS011;9907;42.676;26.348;2023-02-28T05:42:55;9.83;;;8.37;;
19525;SDS011;9907;42.676;26.348;2023-02-28T05:45:21;9.13;;;8.33;;
19525;SDS011;9907;42.676;26.348;2023-02-28T05:47:46;10.10;;;8.27;;
19525;SDS011;9907;42.676;26.348;2023-02-28T05:50:11;10.47;;;9.33;;
19525;SDS011;9907;42.676;26.348;2023-02-28T05:52:37;8.83;;;7.90;;
19525;SDS011;9907;42.676;26.348;2023-02-28T05:55:03;11.70;;;8.20;;
19525;SDS011;9907;42.676;26.348;2023-02-28T05:57:29;8.80;;;7.90;;
19525;SDS011;9907;42.676;26.348;2023-02-28T05:59:55;9.17;;;7.57;;
19525;SDS011;9907;42.676;26.348;2023-02-28T06:02:20;11.60;;;7.80;;
19525;SDS011;9907;42.676;26.348;2023-02-28T06:04:48;8.60;;;7.70;;
19525;SDS011;9907;42.676;26.348;2023-02-28T06:07:13;12.93;;;7.17;;
19525;SDS011;9907;42.676;26.348;2023-02-28T06:09:40;9.17;;;8.20;;
19525;SDS011;9907;42.676;26.348;2023-02-28T06:12:06;10.87;;;9.17;;
19525;SDS011;9907;42.676;26.348;2023-02-28T06:14:34;10.43;;;9.40;;
19525;SDS011;9907;42.676;26.348;2023-02-28T06:17:00;12.43;;;11.17;;
19525;SDS011;9907;42.676;26.348;2023-02-28T06:19:26;12.97;;;11.37;;
19525;SDS011;9907;42.676;26.348;2023-02-28T06:21:52;13.77;;;11.60;;
19525;SDS011;9907;42.676;26.348;2023-02-28T06:24:18;14.93;;;11.10;;
19525;SDS011;9907;42.676;26.348;2023-02-28T06:26:45;13.23;;;11.07;;
19525;SDS011;9907;42.676;26.348;2023-02-28T06:29:10;11.10;;;9.07;;
19525;SDS011;9907;42.676;26.348;2023-02-28T06:31:36;11.00;;;7.80;;
19525;SDS011;9907;42.676;26.348;2023-02-28T06:34:03;6.67;;;5.97;;
19525;SDS011;9907;42.676;26.348;2023-02-28T06:36:29;7.63;;;6.63;;
19525;SDS011;9907;42.676;26.348;2023-02-28T06:38:55;7.00;;;6.30;;
19525;SDS011;9907;42.676;26.348;2023-02-28T06:41:24;10.70;;;6.60;;
19525;SDS011;9907;42.676;26.348;2023-02-28T06:43:52;9.87;;;6.90;;
19525;SDS011;9907;42.676;26.348;2023-02-28T06:46:18;10.87;;;7.43;;
19525;SDS011;9907;42.676;26.348;2023-02-28T06:48:44;10.93;;;7.57;;
19525;SDS011;9907;42.676;26.348;2023-02-28T06:51:11;11.40;;;9.23;;
19525;SDS011;9907;42.676;26.348;2023-02-28T06:53:47;12.70;;;10.33;;
19525;SDS011;9907;42.676;26.348;2023-02-28T06:56:14;11.83;;;9.53;;
19525;SDS011;9907;42.676;26.348;2023-02-28T06:58:41;10.17;;;9.00;;
19525;SDS011;9907;42.676;26.348;2023-02-28T07:01:07;11.07;;;6.97;;
19525;SDS011;9907;42.676;26.348;2023-02-28T07:03:34;7.30;;;6.00;;
19525;SDS011;9907;42.676;26.348;2023-02-28T07:06:01;16.33;;;7.27;;
19525;SDS011;9907;42.676;26.348;2023-02-28T07:08:27;7.03;;;5.43;;
19525;SDS011;9907;42.676;26.348;2023-02-28T07:10:54;11.57;;;5.70;;
19525;SDS011;9907;42.676;26.348;2023-02-28T07:13:20;6.27;;;5.53;;
19525;SDS011;9907;42.676;26.348;2023-02-28T07:16:00;6.23;;;5.67;;
19525;SDS011;9907;42.676;26.348;2023-02-28T07:18:27;7.53;;;5.47;;
19525;SDS011;9907;42.676;26.348;2023-02-28T07:20:55;13.20;;;7.13;;
19525;SDS011;9907;42.676;26.348;2023-02-28T07:23:21;7.63;;;6.03;;
19525;SDS011;9907;42.676;26.348;2023-02-28T07:25:47;6.47;;;5.87;;
19525;SDS011;9907;42.676;26.348;2023-02-28T07:28:13;7.10;;;6.40;;
19525;SDS011;9907;42.676;26.348;2023-02-28T07:30:39;7.53;;;6.37;;
19525;SDS011;9907;42.676;26.348;2023-02-28T07:33:05;7.20;;;6.43;;
19525;SDS011;9907;42.676;26.348;2023-02-28T07:35:31;8.23;;;6.50;;
19525;SDS011;9907;42.676;26.348;2023-02-28T07:37:57;9.80;;;7.33;;
19525;SDS011;9907;42.676;26.348;2023-02-28T07:40:23;9.03;;;7.60;;
19525;SDS011;9907;42.676;26.348;2023-02-28T07:42:49;7.63;;;6.60;;
19525;SDS011;9907;42.676;26.348;2023-02-28T07:45:15;7.83;;;5.90;;
19525;SDS011;9907;42.676;26.348;2023-02-28T07:47:41;6.70;;;5.73;;
19525;SDS011;9907;42.676;26.348;2023-02-28T07:50:08;8.13;;;6.00;;
19525;SDS011;9907;42.676;26.348;2023-02-28T07:52:36;7.80;;;6.10;;
19525;SDS011;9907;42.676;26.348;2023-02-28T07:55:03;9.00;;;6.00;;
19525;SDS011;9907;42.676;26.348;2023-02-28T07:57:30;6.43;;;5.70;;
19525;SDS011;9907;42.676;26.348;2023-02-28T07:59:59;8.27;;;5.57;;
19525;SDS011;9907;42.676;26.348;2023-02-28T08:02:24;6.57;;;5.50;;
19525;SDS011;9907;42.676;26.348;2023-02-28T08:04:50;8.47;;;5.50;;
19525;SDS011;9907;42.676;26.348;2023-02-28T08:07:16;6.17;;;5.23;;
19525;SDS011;9907;42.676;26.348;2023-02-28T08:09:43;5.10;;;4.70;;
19525;SDS011;9907;42.676;26.348;2023-02-28T08:12:10;7.67;;;5.00;;
19525;SDS011;9907;42.676;26.348;2023-02-28T08:14:36;9.93;;;5.83;;
19525;SDS011;9907;42.676;26.348;2023-02-28T08:17:02;13.83;;;12.33;;
19525;SDS011;9907;42.676;26.348;2023-02-28T08:19:29;23.60;;;21.20;;
19525;SDS011;9907;42.676;26.348;2023-02-28T08:21:55;25.90;;;23.17;;
19525;SDS011;9907;42.676;26.348;2023-02-28T08:24:20;23.27;;;20.50;;
19525;SDS011;9907;42.676;26.348;2023-02-28T08:26:46;16.00;;;14.30;;
19525;SDS011;9907;42.676;26.348;2023-02-28T08:29:11;10.40;;;9.33;;
19525;SDS011;9907;42.676;26.348;2023-02-28T08:31:37;8.20;;;7.40;;
19525;SDS011;9907;42.676;26.348;2023-02-28T08:34:06;7.33;;;6.50;;
19525;SDS011;9907;42.676;26.348;2023-02-28T08:36:33;7.10;;;5.20;;
19525;SDS011;9907;42.676;26.348;2023-02-28T08:38:59;5.87;;;5.27;;
19525;SDS011;9907;42.676;26.348;2023-02-28T08:41:25;8.07;;;7.27;;
19525;SDS011;9907;42.676;26.348;2023-02-28T08:43:51;7.03;;;6.13;;
19525;SDS011;9907;42.676;26.348;2023-02-28T08:46:16;6.77;;;6.17;;
19525;SDS011;9907;42.676;26.348;2023-02-28T08:48:42;5.97;;;5.27;;
19525;SDS011;9907;42.676;26.348;2023-02-28T08:51:12;5.67;;;5.17;;
19525;SDS011;9907;42.676;26.348;2023-02-28T08:53:55;6.30;;;5.70;;
19525;SDS011;9907;42.676;26.348;2023-02-28T08:56:23;6.50;;;4.87;;
19525;SDS011;9907;42.676;26.348;2023-02-28T08:58:49;7.57;;;6.40;;
19525;SDS011;9907;42.676;26.348;2023-02-28T09:01:16;7.00;;;5.77;;
19525;SDS011;9907;42.676;26.348;2023-02-28T09:03:47;7.63;;;5.27;;
19525;SDS011;9907;42.676;26.348;2023-02-28T09:06:14;6.10;;;5.17;;
19525;SDS011;9907;42.676;26.348;2023-02-28T09:08:41;6.20;;;5.50;;
19525;SDS011;9907;42.676;26.348;2023-02-28T09:11:11;6.03;;;5.53;;
19525;SDS011;9907;42.676;26.348;2023-02-28T09:13:38;6.70;;;5.63;;
19525;SDS011;9907;42.676;26.348;2023-02-28T09:16:05;7.13;;;5.90;;
19525;SDS011;9907;42.676;26.348;2023-02-28T09:18:35;6.40;;;5.80;;
19525;SDS011;9907;42.676;26.348;2023-02-28T09:21:03;6.67;;;5.97;;
19525;SDS011;9907;42.676;26.348;2023-02-28T09:23:30;6.53;;;5.73;;
19525;SDS011;9907;42.676;26.348;2023-02-28T09:25:55;7.33;;;5.80;;
19525;SDS011;9907;42.676;26.348;2023-02-28T09:28:21;10.10;;;6.80;;
19525;SDS011;9907;42.676;26.348;2023-02-28T09:30:51;9.93;;;5.90;;
19525;SDS011;9907;42.676;26.348;2023-02-28T09:33:17;6.60;;;5.77;;
19525;SDS011;9907;42.676;26.348;2023-02-28T09:35:46;6.60;;;6.00;;
19525;SDS011;9907;42.676;26.348;2023-02-28T09:38:12;8.47;;;6.50;;
19525;SDS011;9907;42.676;26.348;2023-02-28T09:40:46;8.67;;;6.07;;
19525;SDS011;9907;42.676;26.348;2023-02-28T09:43:15;6.50;;;5.90;;
19525;SDS011;9907;42.676;26.348;2023-02-28T09:45:44;9.13;;;6.00;;
19525;SDS011;9907;42.676;26.348;2023-02-28T09:48:24;13.30;;;6.53;;
19525;SDS011;9907;42.676;26.348;2023-02-28T09:51:04;6.90;;;6.27;;
19525;SDS011;9907;42.676;26.348;2023-02-28T09:53:33;8.27;;;6.13;;
19525;SDS011;9907;42.676;26.348;2023-02-28T09:56:20;6.80;;;6.20;;
19525;SDS011;9907;42.676;26.348;2023-02-28T09:58:53;6.83;;;6.13;;
19525;SDS011;9907;42.676;26.348;2023-02-28T10:06:35;7.47;;;6.73;;
19525;SDS011;9907;42.676;26.348;2023-02-28T10:09:11;6.43;;;5.83;;
19525;SDS011;9907;42.676;26.348;2023-02-28T10:11:50;6.83;;;6.13;;
19525;SDS011;9907;42.676;26.348;2023-02-28T10:16:52;7.13;;;6.53;;
19525;SDS011;9907;42.676;26.348;2023-02-28T10:19:24;7.53;;;6.60;;
19525;SDS011;9907;42.676;26.348;2023-02-28T10:22:11;8.30;;;6.70;;
19525;SDS011;9907;42.676;26.348;2023-02-28T10:25:38;8.13;;;7.23;;
19525;SDS011;9907;42.676;26.348;2023-02-28T10:27:43;7.87;;;7.17;;
19525;SDS011;9907;42.676;26.348;2023-02-28T10:30:09;8.10;;;7.30;;
19525;SDS011;9907;42.676;26.348;2023-02-28T10:32:39;9.33;;;8.40;;
19525;SDS011;9907;42.676;26.348;2023-02-28T10:35:15;8.27;;;7.17;;
19525;SDS011;9907;42.676;26.348;2023-02-28T10:37:44;7.83;;;7.03;;
19525;SDS011;9907;42.676;26.348;2023-02-28T10:42:57;8.00;;;7.20;;
19525;SDS011;9907;42.676;26.348;2023-02-28T10:45:24;8.17;;;7.37;;
19525;SDS011;9907;42.676;26.348;2023-02-28T10:47:55;9.50;;;8.17;;
19525;SDS011;9907;42.676;26.348;2023-02-28T10:51:05;8.77;;;7.90;;
19525;SDS011;9907;42.676;26.348;2023-02-28T11:01:25;10.80;;;7.70;;
19525;SDS011;9907;42.676;26.348;2023-02-28T11:03:52;8.33;;;7.33;;
19525;SDS011;9907;42.676;26.348;2023-02-28T11:06:22;8.30;;;7.20;;
19525;SDS011;9907;42.676;26.348;2023-02-28T11:08:55;9.27;;;7.77;;
19525;SDS011;9907;42.676;26.348;2023-02-28T11:11:25;8.20;;;7.50;;
19525;SDS011;9907;42.676;26.348;2023-02-28T11:13:54;8.50;;;7.70;;
19525;SDS011;9907;42.676;26.348;2023-02-28T11:16:22;7.90;;;7.07;;
19525;SDS011;9907;42.676;26.348;2023-02-28T11:18:58;8.30;;;7.43;;
19525;SDS011;9907;42.676;26.348;2023-02-28T11:21:26;9.47;;;8.50;;
19525;SDS011;9907;42.676;26.348;2023-02-28T11:24:37;8.97;;;8.07;;
19525;SDS011;9907;42.676;26.348;2023-02-28T11:26:51;8.43;;;7.63;;
19525;SDS011;9907;42.676;26.348;2023-02-28T11:29:22;9.30;;;7.50;;
19525;SDS011;9907;42.676;26.348;2023-02-28T11:34:49;8.20;;;7.40;;
19525;SDS011;9907;42.676;26.348;2023-02-28T11:37:29;8.00;;;7.20;;
19525;SDS011;9907;42.676;26.348;2023-02-28T11:39:57;9.10;;;8.10;;
19525;SDS011;9907;42.676;26.348;2023-02-28T11:51:28;9.07;;;8.17;;
19525;SDS011;9907;42.676;26.348;2023-02-28T11:56:39;9.53;;;8.53;;
19525;SDS011;9907;42.676;26.348;2023-02-28T11:59:27;11.03;;;8.43;;
19525;SDS011;9907;42.676;26.348;2023-02-28T12:02:18;12.50;;;8.27;;
19525;SDS011;9907;42.676;26.348;2023-02-28T12:05:08;11.47;;;9.60;;
19525;SDS011;9907;42.676;26.348;2023-02-28T12:10:24;11.40;;;9.83;;
19525;SDS011;9907;42.676;26.348;2023-02-28T12:28:56;13.63;;;9.67;;
19525;SDS011;9907;42.676;26.348;2023-02-28T12:31:28;16.70;;;11.07;;
19525;SDS011;9907;42.676;26.348;2023-02-28T12:34:01;13.30;;;10.17;;
19525;SDS011;9907;42.676;26.348;2023-02-28T12:36:31;13.83;;;10.93;;
19525;SDS011;9907;42.676;26.348;2023-02-28T12:41:41;13.50;;;10.83;;
19525;SDS011;9907;42.676;26.348;2023-02-28T12:44:33;15.00;;;10.77;;
19525;SDS011;9907;42.676;26.348;2023-02-28T12:46:58;13.60;;;10.90;;
19525;SDS011;9907;42.676;26.348;2023-02-28T12:49:28;18.57;;;11.97;;
19525;SDS011;9907;42.676;26.348;2023-02-28T12:52:04;12.77;;;10.63;;
19525;SDS011;9907;42.676;26.348;2023-02-28T12:54:46;12.53;;;9.90;;
19525;SDS011;9907;42.676;26.348;2023-02-28T12:57:25;11.50;;;10.07;;
19525;SDS011;9907;42.676;26.348;2023-02-28T13:00:10;14.20;;;11.20;;
19525;SDS011;9907;42.676;26.348;2023-02-28T13:10:53;13.17;;;9.63;;
19525;SDS011;9907;42.676;26.348;2023-02-28T13:13:23;12.90;;;10.90;;
19525;SDS011;9907;42.676;26.348;2023-02-28T13:18:45;15.17;;;11.77;;
19525;SDS011;9907;42.676;26.348;2023-02-28T13:21:25;13.50;;;10.83;;
19525;SDS011;9907;42.676;26.348;2023-02-28T13:23:58;14.53;;;11.27;;
19525;SDS011;9907;42.676;26.348;2023-02-28T13:29:01;15.13;;;12.00;;
19525;SDS011;9907;42.676;26.348;2023-02-28T13:34:47;13.97;;;10.87;;
19525;SDS011;9907;42.676;26.348;2023-02-28T13:39:50;15.60;;;12.47;;
19525;SDS011;9907;42.676;26.348;2023-02-28T13:42:32;13.53;;;12.13;;
19525;SDS011;9907;42.676;26.348;2023-02-28T13:47:44;16.27;;;12.97;;
19525;SDS011;9907;42.676;26.348;2023-02-28T13:55:41;14.77;;;11.90;;
19525;SDS011;9907;42.676;26.348;2023-02-28T13:58:16;14.20;;;10.70;;
19525;SDS011;9907;42.676;26.348;2023-02-28T14:06:22;13.70;;;11.53;;
19525;SDS011;9907;42.676;26.348;2023-02-28T14:09:35;16.83;;;11.60;;
19525;SDS011;9907;42.676;26.348;2023-02-28T14:11:40;15.00;;;11.73;;
19525;SDS011;9907;42.676;26.348;2023-02-28T14:14:08;12.53;;;10.10;;
19525;SDS011;9907;42.676;26.348;2023-02-28T14:16:36;14.83;;;11.23;;
19525;SDS011;9907;42.676;26.348;2023-02-28T14:19:12;13.60;;;11.67;;
19525;SDS011;9907;42.676;26.348;2023-02-28T14:22:32;11.70;;;9.57;;
19525;SDS011;9907;42.676;26.348;2023-02-28T14:35:43;14.10;;;10.27;;
19525;SDS011;9907;42.676;26.348;2023-02-28T14:38:18;14.53;;;11.07;;
19525;SDS011;9907;42.676;26.348;2023-02-28T14:40:47;12.97;;;10.53;;
19525;SDS011;9907;42.676;26.348;2023-02-28T14:43:20;12.40;;;10.43;;
19525;SDS011;9907;42.676;26.348;2023-02-28T14:45:56;14.27;;;9.90;;
19525;SDS011;9907;42.676;26.348;2023-02-28T14:48:25;12.90;;;10.33;;
19525;SDS011;9907;42.676;26.348;2023-02-28T14:50:55;18.07;;;10.80;;
19525;SDS011;9907;42.676;26.348;2023-02-28T14:53:29;11.37;;;9.03;;
19525;SDS011;9907;42.676;26.348;2023-02-28T14:56:00;10.47;;;8.77;;
19525;SDS011;9907;42.676;26.348;2023-02-28T14:58:27;9.87;;;8.03;;
19525;SDS011;9907;42.676;26.348;2023-02-28T15:00:55;11.33;;;8.30;;
19525;SDS011;9907;42.676;26.348;2023-02-28T15:03:32;12.17;;;8.10;;
19525;SDS011;9907;42.676;26.348;2023-02-28T15:06:03;9.60;;;7.80;;
19525;SDS011;9907;42.676;26.348;2023-02-28T15:08:31;9.53;;;7.63;;
19525;SDS011;9907;42.676;26.348;2023-02-28T15:13:38;8.83;;;7.33;;
19525;SDS011;9907;42.676;26.348;2023-02-28T15:16:15;11.00;;;8.03;;
19525;SDS011;9907;42.676;26.348;2023-02-28T15:18:46;9.23;;;8.13;;
19525;SDS011;9907;42.676;26.348;2023-02-28T15:23:56;13.60;;;9.23;;
19525;SDS011;9907;42.676;26.348;2023-02-28T15:26:32;9.50;;;7.37;;
19525;SDS011;9907;42.676;26.348;2023-02-28T15:29:08;11.23;;;8.00;;
19525;SDS011;9907;42.676;26.348;2023-02-28T15:31:40;9.50;;;7.00;;
19525;SDS011;9907;42.676;26.348;2023-02-28T15:34:21;10.40;;;7.17;;
19525;SDS011;9907;42.676;26.348;2023-02-28T15:36:51;7.20;;;6.50;;
19525;SDS011;9907;42.676;26.348;2023-02-28T15:39:22;7.40;;;6.40;;
19525;SDS011;9907;42.676;26.348;2023-02-28T15:41:49;9.77;;;6.90;;
19525;SDS011;9907;42.676;26.348;2023-02-28T15:50:10;11.10;;;8.57;;
19525;SDS011;9907;42.676;26.348;2023-02-28T15:52:45;13.57;;;9.27;;
19525;SDS011;9907;42.676;26.348;2023-02-28T15:55:12;13.73;;;11.43;;
19525;SDS011;9907;42.676;26.348;2023-02-28T15:57:47;13.30;;;10.23;;
19525;SDS011;9907;42.676;26.348;2023-02-28T16:00:16;11.47;;;8.97;;
19525;SDS011;9907;42.676;26.348;2023-02-28T16:02:46;10.13;;;8.57;;
19525;SDS011;9907;42.676;26.348;2023-02-28T16:07:59;9.17;;;7.40;;
19525;SDS011;9907;42.676;26.348;2023-02-28T16:10:38;11.40;;;8.97;;
19525;SDS011;9907;42.676;26.348;2023-02-28T16:13:04;11.13;;;9.37;;
19525;SDS011;9907;42.676;26.348;2023-02-28T16:15:31;8.47;;;7.63;;
19525;SDS011;9907;42.676;26.348;2023-02-28T16:18:08;12.33;;;8.10;;
19525;SDS011;9907;42.676;26.348;2023-02-28T16:20:43;9.87;;;8.47;;
19525;SDS011;9907;42.676;26.348;2023-02-28T16:23:09;10.77;;;7.87;;
19525;SDS011;9907;42.676;26.348;2023-02-28T16:25:42;8.67;;;7.73;;
19525;SDS011;9907;42.676;26.348;2023-02-28T16:28:12;9.23;;;8.30;;
19525;SDS011;9907;42.676;26.348;2023-02-28T16:30:44;9.17;;;7.80;;
19525;SDS011;9907;42.676;26.348;2023-02-28T16:33:09;8.10;;;6.90;;
19525;SDS011;9907;42.676;26.348;2023-02-28T16:35:35;7.83;;;6.93;;
19525;SDS011;9907;42.676;26.348;2023-02-28T16:38:11;10.47;;;7.77;;
19525;SDS011;9907;42.676;26.348;2023-02-28T16:40:37;8.30;;;7.07;;
19525;SDS011;9907;42.676;26.348;2023-02-28T16:43:24;7.67;;;6.67;;
19525;SDS011;9907;42.676;26.348;2023-02-28T16:45:54;8.27;;;6.70;;
19525;SDS011;9907;42.676;26.348;2023-02-28T16:48:24;8.00;;;7.10;;
19525;SDS011;9907;42.676;26.348;2023-02-28T16:50:50;7.47;;;6.47;;
19525;SDS011;9907;42.676;26.348;2023-02-28T16:53:15;5.67;;;5.10;;
19525;SDS011;9907;42.676;26.348;2023-02-28T16:55:41;6.77;;;5.63;;
19525;SDS011;9907;42.676;26.348;2023-02-28T16:58:10;9.07;;;6.53;;
19525;SDS011;9907;42.676;26.348;2023-02-28T17:00:40;7.10;;;6.40;;
19525;SDS011;9907;42.676;26.348;2023-02-28T17:03:09;7.00;;;6.30;;
19525;SDS011;9907;42.676;26.348;2023-02-28T17:05:47;7.60;;;6.67;;
19525;SDS011;9907;42.676;26.348;2023-02-28T17:08:12;7.33;;;6.47;;
19525;SDS011;9907;42.676;26.348;2023-02-28T17:10:38;6.90;;;6.20;;
19525;SDS011;9907;42.676;26.348;2023-02-28T17:13:03;8.33;;;7.00;;
19525;SDS011;9907;42.676;26.348;2023-02-28T17:15:29;8.13;;;7.33;;
19525;SDS011;9907;42.676;26.348;2023-02-28T17:17:55;6.23;;;5.63;;
19525;SDS011;9907;42.676;26.348;2023-02-28T17:20:22;6.30;;;5.67;;
19525;SDS011;9907;42.676;26.348;2023-02-28T17:22:48;6.67;;;5.97;;
19525;SDS011;9907;42.676;26.348;2023-02-28T17:25:17;5.97;;;5.47;;
19525;SDS011;9907;42.676;26.348;2023-02-28T17:27:45;8.90;;;6.60;;
19525;SDS011;9907;42.676;26.348;2023-02-28T17:32:43;7.10;;;6.17;;